Time;durP1;ratioP1;P1;durP2;ratioP2;P2;SDS_P1;SDS_P2;PMS_P1;PMS_P2;Temp;Humidity;BMP_temperature;BMP_pressure;BME280_temperature;BME280_humidity;BME280_pressure;Samples;Min_cycle;Max_cycle;Signal;HPM_P1;HPM_P2
2022/04/17 00:00:14;;;;;;;10.23;5.90;;;3.60;99.90;;;;;;5030367;28;20035;-38
2022/04/17 00:02:41;;;;;;;8.75;5.78;;;3.60;99.90;;;;;;5033516;28;20033;-38
2022/04/17 00:05:08;;;;;;;11.20;6.28;;;3.40;99.90;;;;;;5033828;28;20111;-36
2022/04/17 00:07:34;;;;;;;8.35;5.80;;;3.30;99.90;;;;;;5029068;28;20310;-38
2022/04/17 00:10:01;;;;;;;9.13;6.15;;;3.10;99.90;;;;;;5031032;28;20502;-37
2022/04/17 00:12:27;;;;;;;9.90;6.47;;;3.00;99.90;;;;;;5028295;28;20114;-38
2022/04/17 00:15:00;;;;;;;12.98;6.57;;;3.00;99.90;;;;;;5030545;28;20017;-35
2022/04/17 00:17:26;;;;;;;8.68;6.07;;;3.00;99.90;;;;;;5032817;28;20033;-38
2022/04/17 00:19:51;;;;;;;7.65;5.93;;;2.90;99.90;;;;;;5024683;28;20106;-38
2022/04/17 00:22:17;;;;;;;10.68;6.70;;;2.70;99.90;;;;;;5033239;28;20036;-36
2022/04/17 00:24:43;;;;;;;9.30;6.60;;;2.60;99.90;;;;;;5028765;28;20545;-38
2022/04/17 00:27:09;;;;;;;10.70;6.85;;;2.60;99.90;;;;;;5031385;28;20394;-35
2022/04/17 00:29:35;;;;;;;11.93;7.30;;;2.50;99.90;;;;;;5032808;28;20041;-38
2022/04/17 00:32:01;;;;;;;9.73;6.85;;;2.40;99.90;;;;;;5032494;28;20426;-34
2022/04/17 00:34:29;;;;;;;10.45;6.38;;;2.30;99.90;;;;;;5033913;28;20036;-37
2022/04/17 00:36:59;;;;;;;9.47;6.77;;;2.30;99.90;;;;;;5028661;28;20367;-38
2022/04/17 00:39:25;;;;;;;15.27;6.97;;;2.30;99.90;;;;;;5031250;28;20497;-35
2022/04/17 00:41:51;;;;;;;11.88;7.40;;;2.30;99.90;;;;;;5031546;28;21625;-38
2022/04/17 00:44:17;;;;;;;13.10;7.88;;;2.30;99.90;;;;;;5030886;28;20029;-37
2022/04/17 00:46:42;;;;;;;11.65;8.60;;;2.30;99.90;;;;;;5028374;28;20029;-35
2022/04/17 00:49:08;;;;;;;11.30;7.28;;;2.30;99.90;;;;;;5032435;28;20506;-36
2022/04/17 00:51:37;;;;;;;10.90;8.02;;;2.10;99.90;;;;;;5030963;28;20098;-37
2022/04/17 00:54:06;;;;;;;9.30;8.07;;;2.10;99.90;;;;;;5035580;28;20021;-37
2022/04/17 00:56:32;;;;;;;11.90;7.28;;;2.20;99.90;;;;;;5035022;28;20100;-38
2022/04/17 00:59:00;;;;;;;14.35;8.27;;;2.30;99.90;;;;;;5034723;28;20033;-39
2022/04/17 01:01:32;;;;;;;9.43;7.10;;;2.30;99.90;;;;;;5032778;28;20517;-36
2022/04/17 01:03:58;;;;;;;13.35;7.40;;;2.40;99.90;;;;;;5047031;28;20029;-36
2022/04/17 01:06:24;;;;;;;11.98;7.95;;;2.20;99.90;;;;;;5035023;28;20738;-38
2022/04/17 01:08:49;;;;;;;10.40;7.10;;;2.00;99.90;;;;;;5032428;28;20044;-36
2022/04/17 01:11:16;;;;;;;9.02;6.68;;;2.00;99.90;;;;;;5032750;28;20040;-38
2022/04/17 01:13:43;;;;;;;12.40;7.60;;;1.90;99.90;;;;;;5034797;28;20032;-36
2022/04/17 01:16:09;;;;;;;10.27;6.53;;;1.80;99.90;;;;;;5032106;28;20029;-37
2022/04/17 01:19:02;;;;;;;14.20;7.13;;;1.80;99.90;;;;;;5033671;28;20036;-37
2022/04/17 01:21:29;;;;;;;12.40;7.65;;;1.80;99.90;;;;;;5034356;28;20436;-37
2022/04/17 01:26:57;;;;;;;9.85;7.13;;;1.80;99.90;;;;;;5030794;28;20677;-36
2022/04/17 01:29:37;;;;;;;10.15;6.53;;;1.90;99.90;;;;;;5031602;28;20489;-38
2022/04/17 01:32:10;;;;;;;9.70;6.95;;;1.80;99.90;;;;;;5032634;28;20049;-36
2022/04/17 01:34:37;;;;;;;10.70;7.45;;;1.80;99.90;;;;;;5035663;28;20021;-36
2022/04/17 01:37:03;;;;;;;12.88;6.28;;;1.90;99.90;;;;;;5032918;28;20456;-39
2022/04/17 01:39:29;;;;;;;9.70;6.18;;;1.70;99.90;;;;;;5035409;28;20514;-39
2022/04/17 01:41:56;;;;;;;8.57;6.50;;;1.60;99.90;;;;;;5034522;28;20026;-39
2022/04/17 01:44:22;;;;;;;9.18;6.57;;;1.60;99.90;;;;;;5036717;28;20033;-36
2022/04/17 01:46:48;;;;;;;12.60;6.80;;;1.60;99.90;;;;;;5035291;28;20060;-36
2022/04/17 01:49:15;;;;;;;6.88;5.63;;;1.60;99.90;;;;;;5032598;28;20033;-35
2022/04/17 01:51:42;;;;;;;10.88;6.32;;;1.60;99.90;;;;;;5036475;28;20088;-38
2022/04/17 01:54:10;;;;;;;9.00;6.78;;;1.60;99.90;;;;;;5035995;28;20032;-37
2022/04/17 01:56:38;;;;;;;10.13;7.43;;;1.60;99.90;;;;;;5035896;28;20025;-37
2022/04/17 01:59:05;;;;;;;8.50;6.28;;;1.60;99.90;;;;;;5032224;28;20063;-37
2022/04/17 02:01:34;;;;;;;10.10;6.18;;;1.60;99.90;;;;;;5036008;28;20142;-35
2022/04/17 02:04:01;;;;;;;9.18;6.38;;;1.60;99.90;;;;;;5032924;28;20029;-36
2022/04/17 02:06:27;;;;;;;9.80;5.57;;;1.70;99.90;;;;;;5035528;28;20029;-37
2022/04/17 02:08:52;;;;;;;10.00;5.60;;;1.80;99.90;;;;;;5032368;28;20025;-37
2022/04/17 02:11:19;;;;;;;10.88;6.82;;;1.50;99.90;;;;;;5032834;28;20106;-36
2022/04/17 02:13:45;;;;;;;9.20;6.10;;;1.40;99.90;;;;;;5032821;28;20017;-38
2022/04/17 02:16:11;;;;;;;12.02;6.70;;;1.80;99.90;;;;;;5034072;28;20021;-38
2022/04/17 02:18:36;;;;;;;9.57;6.15;;;1.80;99.90;;;;;;5031933;28;21042;-38
2022/04/17 02:21:02;;;;;;;13.73;5.90;;;1.50;99.90;;;;;;5032387;28;20371;-38
2022/04/17 02:23:28;;;;;;;11.57;6.03;;;1.40;99.90;;;;;;5033630;28;20140;-37
2022/04/17 02:25:54;;;;;;;7.93;5.60;;;1.40;99.90;;;;;;5033348;28;20036;-38
2022/04/17 02:28:20;;;;;;;9.48;6.65;;;1.40;99.90;;;;;;5032655;28;20041;-36
2022/04/17 02:30:45;;;;;;;7.80;5.93;;;1.30;99.90;;;;;;5032051;28;20477;-38
2022/04/17 02:33:11;;;;;;;7.85;6.25;;;1.20;99.90;;;;;;5034590;28;20029;-36
2022/04/17 02:35:37;;;;;;;10.50;6.60;;;1.10;99.90;;;;;;5033433;28;20123;-36
2022/04/17 02:38:03;;;;;;;8.07;6.50;;;1.10;99.90;;;;;;5031795;28;20025;-37
2022/04/17 02:40:28;;;;;;;10.00;6.95;;;1.10;99.90;;;;;;5035737;28;20025;-38
2022/04/17 02:42:54;;;;;;;9.73;6.00;;;1.20;99.90;;;;;;5035080;28;20040;-39
2022/04/17 02:45:20;;;;;;;10.80;6.93;;;1.30;99.90;;;;;;5032705;28;20493;-36
2022/04/17 02:47:48;;;;;;;8.80;6.20;;;1.50;99.90;;;;;;5032309;28;20033;-38
2022/04/17 02:50:16;;;;;;;10.07;6.50;;;1.40;99.90;;;;;;5033300;28;20098;-39
2022/04/17 02:52:42;;;;;;;11.73;6.30;;;1.40;99.90;;;;;;5034576;28;20021;-39
2022/04/17 02:55:08;;;;;;;7.10;6.18;;;1.30;99.90;;;;;;5034903;28;20029;-38
2022/04/17 02:57:34;;;;;;;8.05;5.80;;;1.30;99.90;;;;;;5033792;28;21597;-38
2022/04/17 03:00:00;;;;;;;10.85;6.60;;;1.20;99.90;;;;;;5032966;28;20025;-38
2022/04/17 03:07:55;;;;;;;14.80;7.22;;;1.00;99.90;;;;;;5029254;28;20048;-37
2022/04/17 03:10:21;;;;;;;12.60;6.95;;;0.90;99.90;;;;;;5030792;28;20037;-35
2022/04/17 03:12:48;;;;;;;8.45;6.93;;;0.80;99.90;;;;;;5030601;28;20035;-39
2022/04/17 03:15:14;;;;;;;10.25;5.38;;;0.90;99.90;;;;;;5031309;28;20032;-39
2022/04/17 03:17:40;;;;;;;10.07;7.03;;;0.80;99.90;;;;;;5032003;28;20041;-39
2022/04/17 03:20:07;;;;;;;8.82;6.50;;;0.90;99.90;;;;;;5032081;28;20017;-38
2022/04/17 03:22:33;;;;;;;10.60;6.55;;;1.00;99.90;;;;;;5034423;28;20029;-38
2022/04/17 03:25:04;;;;;;;9.68;7.10;;;1.00;99.90;;;;;;5033605;28;20033;-35
2022/04/17 03:27:31;;;;;;;8.73;6.32;;;1.00;99.90;;;;;;5033498;28;20104;-37
2022/04/17 03:29:58;;;;;;;13.23;6.40;;;0.90;99.90;;;;;;5032322;28;20036;-38
2022/04/17 03:32:24;;;;;;;11.35;6.70;;;0.90;99.90;;;;;;5035097;28;20033;-38
2022/04/17 03:34:50;;;;;;;10.15;7.38;;;0.80;99.90;;;;;;5035529;28;20493;-38
2022/04/17 03:37:16;;;;;;;10.27;7.28;;;0.70;99.90;;;;;;5032931;28;20032;-36
2022/04/17 03:39:43;;;;;;;10.27;6.55;;;0.70;99.90;;;;;;5032474;28;20087;-36
2022/04/17 03:42:09;;;;;;;10.38;7.28;;;0.80;99.90;;;;;;5030860;28;20021;-38
2022/04/17 03:44:34;;;;;;;10.10;6.93;;;0.70;99.90;;;;;;5033477;28;20038;-38
2022/04/17 03:47:01;;;;;;;10.30;6.65;;;0.70;99.90;;;;;;5033018;28;20039;-38
2022/04/17 03:49:27;;;;;;;12.02;7.20;;;0.70;99.90;;;;;;5030979;28;20379;-39
2022/04/17 03:51:52;;;;;;;8.25;6.53;;;0.80;99.90;;;;;;5032616;28;20035;-36
2022/04/17 03:54:19;;;;;;;8.55;6.53;;;0.80;99.90;;;;;;5031568;28;20033;-35
2022/04/17 03:56:47;;;;;;;8.93;6.90;;;0.80;99.90;;;;;;5032195;28;20029;-37
2022/04/17 03:59:13;;;;;;;10.40;6.40;;;0.80;99.90;;;;;;5028079;28;20605;-37
2022/04/17 04:01:38;;;;;;;9.98;6.45;;;0.90;99.90;;;;;;5031485;28;20041;-37
2022/04/17 04:04:06;;;;;;;9.75;6.53;;;1.00;99.90;;;;;;5029205;28;21130;-39
2022/04/17 04:06:32;;;;;;;10.07;6.85;;;1.00;99.90;;;;;;5029745;28;20032;-39
2022/04/17 04:08:58;;;;;;;10.32;7.03;;;1.00;99.90;;;;;;5034112;28;20094;-38
2022/04/17 04:11:24;;;;;;;11.15;6.65;;;1.00;99.90;;;;;;5033118;28;20033;-38
2022/04/17 04:13:49;;;;;;;8.98;6.72;;;0.90;99.90;;;;;;5030802;28;20048;-37
2022/04/17 04:16:15;;;;;;;10.80;6.63;;;1.00;99.90;;;;;;5031130;28;20111;-35
2022/04/17 04:18:41;;;;;;;10.27;7.50;;;0.90;99.90;;;;;;5031995;28;20041;-37
2022/04/17 04:21:07;;;;;;;12.90;7.25;;;0.80;99.90;;;;;;5027589;28;20083;-39
2022/04/17 04:23:35;;;;;;;11.55;7.43;;;0.80;99.90;;;;;;5031786;28;20044;-38
2022/04/17 04:26:02;;;;;;;13.57;8.75;;;0.80;99.90;;;;;;5033020;28;20033;-36
2022/04/17 04:28:36;;;;;;;9.00;6.70;;;0.70;99.90;;;;;;5029277;28;20485;-39
2022/04/17 04:31:07;;;;;;;11.43;6.75;;;0.70;99.90;;;;;;5028792;28;20575;-36
2022/04/17 04:33:33;;;;;;;8.45;6.07;;;0.70;99.90;;;;;;5027994;28;20464;-38
2022/04/17 04:36:00;;;;;;;10.95;7.38;;;0.80;99.90;;;;;;5033176;28;20075;-37
2022/04/17 04:38:26;;;;;;;11.95;7.35;;;0.80;99.90;;;;;;5029565;28;20036;-38
2022/04/17 04:40:52;;;;;;;11.82;7.13;;;0.70;99.90;;;;;;5023629;28;20037;-37
2022/04/17 04:43:18;;;;;;;10.57;7.32;;;0.70;99.90;;;;;;5025999;28;20033;-35
2022/04/17 04:51:16;;;;;;;8.85;7.60;;;0.80;99.90;;;;;;5021280;28;20091;-38
2022/04/17 04:53:42;;;;;;;;;;;0.70;99.90;;;;;;5024037;28;20033;-38
2022/04/17 04:56:08;;;;;;;11.32;6.93;;;0.70;99.90;;;;;;5021834;28;20003;-35
2022/04/17 04:58:34;;;;;;;8.52;6.07;;;0.70;99.90;;;;;;5024145;28;20315;-38
2022/04/17 05:01:00;;;;;;;7.53;6.18;;;0.60;99.90;;;;;;5023083;28;20102;-39
2022/04/17 05:03:25;;;;;;;10.32;7.07;;;0.40;99.90;;;;;;5025040;28;20063;-36
2022/04/17 05:05:52;;;;;;;12.07;7.15;;;0.40;99.90;;;;;;5030897;28;20044;-38
2022/04/17 05:08:19;;;;;;;11.18;7.13;;;0.50;99.90;;;;;;5029865;28;20048;-36
2022/04/17 05:10:45;;;;;;;10.60;8.48;;;0.60;99.90;;;;;;5031968;28;20041;-36
2022/04/17 05:13:11;;;;;;;12.15;7.93;;;0.70;99.90;;;;;;5032754;28;20044;-36
2022/04/17 05:15:36;;;;;;;10.32;7.50;;;0.80;99.90;;;;;;5030614;28;20017;-37
2022/04/17 05:18:02;;;;;;;11.25;7.13;;;0.90;99.90;;;;;;5029162;28;20052;-38
2022/04/17 05:20:28;;;;;;;9.55;7.32;;;1.00;99.90;;;;;;5030453;28;20026;-37
2022/04/17 05:23:03;;;;;;;12.35;7.57;;;1.00;99.90;;;;;;5033421;28;20075;-38
2022/04/17 05:25:30;;;;;;;12.05;6.85;;;1.00;99.90;;;;;;5033943;28;20389;-39
2022/04/17 05:27:55;;;;;;;11.32;7.85;;;1.10;99.90;;;;;;5031753;28;20025;-36
2022/04/17 05:30:21;;;;;;;8.23;6.65;;;1.20;99.90;;;;;;5027317;28;20038;-37
2022/04/17 05:32:47;;;;;;;10.10;7.47;;;1.20;99.90;;;;;;5030690;28;20041;-37
2022/04/17 05:35:12;;;;;;;9.18;6.63;;;1.20;99.90;;;;;;5043870;28;20033;-38
2022/04/17 05:37:38;;;;;;;10.10;7.00;;;1.30;99.90;;;;;;5028719;28;20104;-38
2022/04/17 05:40:05;;;;;;;9.23;6.40;;;1.40;99.90;;;;;;5034476;28;20029;-38
2022/04/17 05:42:31;;;;;;;11.02;7.18;;;1.50;99.90;;;;;;5030428;28;20405;-39
2022/04/17 05:44:56;;;;;;;9.73;6.85;;;1.50;99.90;;;;;;5032558;28;20040;-38
2022/04/17 05:47:23;;;;;;;10.90;7.50;;;1.70;99.90;;;;;;5034147;28;20036;-39
2022/04/17 05:49:49;;;;;;;9.20;6.05;;;1.80;99.90;;;;;;5033019;28;20055;-36
2022/04/17 05:52:15;;;;;;;8.15;5.45;;;2.00;99.90;;;;;;5032919;28;20029;-38
2022/04/17 05:54:43;;;;;;;10.30;6.07;;;2.20;99.90;;;;;;5036382;28;20486;-35
2022/04/17 05:57:10;;;;;;;8.27;5.75;;;2.30;99.90;;;;;;5036804;28;20025;-38
2022/04/17 05:59:36;;;;;;;6.65;5.22;;;2.50;99.90;;;;;;5040772;28;20555;-38
2022/04/17 06:02:03;;;;;;;8.93;5.88;;;2.60;99.90;;;;;;5038216;28;20051;-37
2022/04/17 06:04:28;;;;;;;7.93;4.88;;;2.80;99.90;;;;;;5036431;28;20036;-36
2022/04/17 06:06:54;;;;;;;6.43;4.82;;;3.00;99.90;;;;;;5043882;28;20559;-38
2022/04/17 06:09:20;;;;;;;6.75;5.38;;;3.10;99.90;;;;;;5036292;28;20117;-35
2022/04/17 06:11:46;;;;;;;5.57;4.68;;;3.20;99.90;;;;;;5037167;28;20036;-36
2022/04/17 06:14:11;;;;;;;7.88;4.47;;;3.30;99.90;;;;;;5038044;28;20029;-38
2022/04/17 06:16:38;;;;;;;5.05;4.53;;;3.50;99.90;;;;;;5037768;28;20029;-37
2022/04/17 06:19:05;;;;;;;5.90;4.35;;;3.60;99.90;;;;;;5039727;28;20029;-36
2022/04/17 06:21:31;;;;;;;9.25;4.32;;;3.70;99.90;;;;;;5034716;28;20036;-38
2022/04/17 06:23:56;;;;;;;5.13;4.50;;;4.00;99.90;;;;;;5034931;28;20028;-36
2022/04/17 06:26:22;;;;;;;6.05;4.05;;;4.00;99.90;;;;;;5035212;28;20379;-36
2022/04/17 06:28:48;;;;;;;7.00;4.47;;;4.20;99.90;;;;;;5036151;28;20167;-37
2022/04/17 06:31:13;;;;;;;5.05;4.40;;;4.30;99.90;;;;;;5034397;28;20052;-36
2022/04/17 06:33:39;;;;;;;5.90;4.43;;;4.40;99.90;;;;;;5034849;28;20426;-38
2022/04/17 06:36:05;;;;;;;6.00;4.25;;;4.60;99.50;;;;;;5036679;28;20040;-38
2022/04/17 06:38:31;;;;;;;3.85;3.55;;;4.70;99.90;;;;;;5036603;28;20477;-38
2022/04/17 06:40:57;;;;;;;4.63;4.22;;;4.90;99.60;;;;;;5035164;28;20043;-39
2022/04/17 06:43:24;;;;;;;5.95;4.20;;;5.00;97.60;;;;;;5033895;28;20037;-39
2022/04/17 06:45:49;;;;;;;5.35;3.90;;;5.20;98.90;;;;;;5035049;28;20465;-38
2022/04/17 06:48:23;;;;;;;4.30;3.70;;;5.30;97.40;;;;;;5038828;28;20033;-37
2022/04/17 06:50:51;;;;;;;5.15;3.38;;;5.50;98.70;;;;;;5048660;28;20028;-35
2022/04/17 06:53:17;;;;;;;4.73;3.90;;;5.50;93.00;;;;;;5042531;28;20048;-35
2022/04/17 06:55:43;;;;;;;7.13;3.65;;;5.50;96.80;;;;;;5035746;28;20029;-36
2022/04/17 06:58:09;;;;;;;4.15;3.20;;;5.50;94.50;;;;;;5041416;28;20024;-36
2022/04/17 07:00:36;;;;;;;4.30;3.28;;;5.60;91.60;;;;;;5037288;28;20023;-38
2022/04/17 07:03:01;;;;;;;4.05;2.95;;;5.60;90.30;;;;;;5034026;28;20373;-38
2022/04/17 07:05:27;;;;;;;3.90;3.38;;;5.70;90.10;;;;;;5033711;28;20037;-37
2022/04/17 07:08:02;;;;;;;4.50;3.53;;;5.80;91.40;;;;;;5032804;28;20024;-35
2022/04/17 07:10:29;;;;;;;5.60;3.80;;;5.90;94.60;;;;;;5029434;28;20025;-39
2022/04/17 07:12:55;;;;;;;4.22;3.10;;;6.00;95.60;;;;;;5034096;28;20033;-35
2022/04/17 07:15:21;;;;;;;3.70;3.40;;;6.20;87.60;;;;;;5035830;28;20029;-38
2022/04/17 07:17:47;;;;;;;3.58;3.15;;;6.20;92.30;;;;;;5039435;28;20112;-36
2022/04/17 07:20:13;;;;;;;4.55;3.40;;;6.30;87.40;;;;;;5035511;28;20108;-36
2022/04/17 07:22:41;;;;;;;4.38;3.45;;;6.30;84.90;;;;;;5033558;28;20024;-37
2022/04/17 07:25:07;;;;;;;4.47;3.00;;;6.30;89.70;;;;;;5035430;28;20098;-38
2022/04/17 07:27:53;;;;;;;3.80;3.45;;;6.40;87.60;;;;;;5034240;28;20052;-37
2022/04/17 07:30:21;;;;;;;4.50;2.92;;;6.50;79.50;;;;;;5036433;28;20068;-38
2022/04/17 07:32:49;;;;;;;4.07;3.00;;;6.70;84.10;;;;;;5031862;28;20036;-36
2022/04/17 07:35:16;;;;;;;3.38;2.80;;;6.70;79.50;;;;;;5037663;28;20025;-38
2022/04/17 07:37:50;;;;;;;2.80;2.50;;;6.90;82.70;;;;;;5034887;28;20075;-38
2022/04/17 07:40:21;;;;;;;4.00;3.55;;;6.90;72.50;;;;;;5036528;28;20060;-38
2022/04/17 07:42:50;;;;;;;3.25;2.90;;;6.90;77.10;;;;;;5037548;28;20029;-35
2022/04/17 07:45:17;;;;;;;6.57;3.22;;;7.10;71.60;;;;;;5038866;28;20445;-39
2022/04/17 07:47:44;;;;;;;5.30;3.17;;;7.10;76.20;;;;;;5040372;28;20029;-38
2022/04/17 07:50:12;;;;;;;3.00;2.80;;;7.20;68.10;;;;;;5038590;28;20041;-37
2022/04/17 07:52:39;;;;;;;;;;;7.30;68.30;;;;;;5036910;28;20056;-36
2022/04/17 07:55:09;;;;;;;3.22;2.92;;;7.30;90.60;;;;;;5039672;28;19959;-38
2022/04/17 08:00:21;;;;;;;3.67;3.03;;;7.50;73.50;;;;;;5032715;28;20075;-35
2022/04/17 08:02:53;;;;;;;4.63;3.00;;;7.60;73.00;;;;;;5038356;28;20029;-36
2022/04/17 08:05:21;;;;;;;3.40;3.05;;;7.80;83.00;;;;;;5038152;28;20441;-35
2022/04/17 08:07:47;;;;;;;5.40;3.15;;;7.70;67.70;;;;;;5036023;28;20033;-37
2022/04/17 08:10:13;;;;;;;3.10;2.80;;;7.60;63.50;;;;;;5042288;28;20056;-38
2022/04/17 08:12:39;;;;;;;5.43;3.05;;;7.60;60.80;;;;;;5035480;28;20125;-37
2022/04/17 08:15:06;;;;;;;3.58;3.17;;;7.70;66.60;;;;;;5036766;28;20187;-39
2022/04/17 08:17:33;;;;;;;3.25;3.00;;;7.70;58.50;;;;;;5032337;28;20030;-36
2022/04/17 08:19:58;;;;;;;3.33;2.92;;;7.70;61.30;;;;;;5036530;28;20025;-36
2022/04/17 08:22:24;;;;;;;4.13;3.50;;;7.90;67.10;;;;;;5035659;28;20039;-38
2022/04/17 08:24:50;;;;;;;3.28;2.97;;;8.20;63.50;;;;;;5037364;28;20059;-37
2022/04/17 08:27:15;;;;;;;3.95;2.80;;;8.10;59.60;;;;;;5030653;28;20049;-39
2022/04/17 08:29:41;;;;;;;4.60;3.00;;;8.20;59.10;;;;;;5037813;28;20021;-38
2022/04/17 08:32:07;;;;;;;4.35;3.17;;;8.20;61.90;;;;;;5032591;28;20120;-38
2022/04/17 08:34:32;;;;;;;4.10;3.22;;;8.40;61.20;;;;;;5036656;28;20115;-36
2022/04/17 08:36:59;;;;;;;3.65;3.08;;;8.40;60.50;;;;;;5034468;28;20029;-38
2022/04/17 08:39:25;;;;;;;2.80;2.60;;;8.30;54.90;;;;;;5038184;28;20417;-37
2022/04/17 08:41:54;;;;;;;4.68;2.92;;;8.40;57.90;;;;;;5038755;28;20029;-37
2022/04/17 08:44:21;;;;;;;3.20;2.90;;;8.60;54.00;;;;;;5036334;28;20041;-36
2022/04/17 08:46:47;;;;;;;5.30;3.20;;;8.60;70.60;;;;;;5036952;28;20737;-36
2022/04/17 08:49:13;;;;;;;4.00;3.00;;;8.70;61.60;;;;;;5033909;28;20373;-39
2022/04/17 08:51:40;;;;;;;3.30;2.75;;;8.90;57.40;;;;;;5038198;28;20033;-37
2022/04/17 08:54:07;;;;;;;5.72;3.47;;;8.50;56.20;;;;;;5037152;28;20393;-36
2022/04/17 08:56:34;;;;;;;4.25;2.75;;;8.40;57.40;;;;;;5036350;28;20520;-38
2022/04/17 08:59:00;;;;;;;3.53;3.20;;;8.50;60.00;;;;;;5034949;28;20078;-37
2022/04/17 09:01:26;;;;;;;3.65;3.03;;;8.50;55.60;;;;;;5036803;28;20534;-37
2022/04/17 09:03:52;;;;;;;7.35;2.90;;;8.70;65.90;;;;;;5031580;28;20040;-39
2022/04/17 09:06:19;;;;;;;3.13;2.83;;;8.90;55.10;;;;;;5031639;28;20033;-38
2022/04/17 09:09:18;;;;;;;3.97;3.53;;;9.00;57.00;;;;;;5032388;28;20029;-38
2022/04/17 09:11:44;;;;;;;3.88;3.13;;;8.90;64.70;;;;;;5033673;28;20049;-38
2022/04/17 09:14:09;;;;;;;3.47;2.83;;;8.90;62.40;;;;;;5031212;28;24233;-39
2022/04/17 09:16:38;;;;;;;3.50;3.13;;;8.90;64.00;;;;;;5035592;28;20036;-37
2022/04/17 09:19:15;;;;;;;4.00;2.78;;;9.10;57.50;;;;;;5036887;28;20030;-36
2022/04/17 09:21:41;;;;;;;3.55;3.20;;;9.20;60.60;;;;;;5030608;28;20039;-37
2022/04/17 09:24:20;;;;;;;3.90;2.50;;;9.10;52.70;;;;;;5035421;28;20376;-36
2022/04/17 09:26:59;;;;;;;3.15;2.50;;;9.30;55.30;;;;;;5041330;28;20029;-37
2022/04/17 09:29:33;;;;;;;4.07;2.40;;;9.40;57.70;;;;;;5040376;28;20256;-39
2022/04/17 09:32:09;;;;;;;4.45;2.55;;;9.30;52.50;;;;;;5039213;28;20174;-36
2022/04/17 09:34:47;;;;;;;3.55;2.33;;;9.20;50.60;;;;;;5036877;28;20303;-36
2022/04/17 09:37:18;;;;;;;3.10;2.53;;;9.40;53.60;;;;;;5034586;28;20140;-35
2022/04/17 09:39:45;;;;;;;3.00;2.70;;;9.50;60.00;;;;;;5041482;28;20120;-37
2022/04/17 09:42:10;;;;;;;6.15;2.80;;;9.70;55.20;;;;;;5039819;28;20053;-39
2022/04/17 09:44:47;;;;;;;3.38;2.60;;;9.90;55.70;;;;;;5041363;28;20580;-39
2022/04/17 09:47:20;;;;;;;4.68;2.67;;;9.70;50.90;;;;;;5037534;28;20029;-38
2022/04/17 09:50:08;;;;;;;5.03;2.92;;;10.00;51.90;;;;;;5040057;28;20056;-37
2022/04/17 09:52:46;;;;;;;3.20;2.58;;;10.20;54.00;;;;;;5037858;28;20099;-37
2022/04/17 09:55:13;;;;;;;10.63;4.00;;;10.00;58.80;;;;;;5039033;28;20021;-37
2022/04/17 09:57:40;;;;;;;4.35;3.03;;;10.00;54.50;;;;;;5035997;28;20029;-39
2022/04/17 10:00:14;;;;;;;3.20;2.42;;;10.40;54.10;;;;;;5035835;28;20131;-37
2022/04/17 10:02:42;;;;;;;3.35;2.47;;;10.20;47.10;;;;;;5031046;28;20504;-37
2022/04/17 10:05:10;;;;;;;5.30;3.13;;;10.10;46.80;;;;;;5033950;28;20037;-37
2022/04/17 10:07:39;;;;;;;2.77;2.57;;;10.20;48.10;;;;;;5038706;28;20033;-37
2022/04/17 10:10:06;;;;;;;2.88;2.55;;;10.40;51.00;;;;;;5037335;28;20687;-36
2022/04/17 10:12:34;;;;;;;4.70;2.88;;;10.20;49.40;;;;;;5031779;28;20386;-36
2022/04/17 10:15:04;;;;;;;4.97;3.33;;;10.10;48.90;;;;;;5034843;28;20140;-36
2022/04/17 10:17:31;;;;;;;3.00;2.35;;;10.00;48.30;;;;;;5039280;28;21402;-39
2022/04/17 10:20:02;;;;;;;3.22;2.90;;;10.10;50.30;;;;;;5032482;28;20017;-37
2022/04/17 10:22:38;;;;;;;3.03;2.45;;;10.30;49.80;;;;;;5041294;28;20116;-39
2022/04/17 10:25:05;;;;;;;3.70;3.10;;;10.40;48.50;;;;;;5039817;28;20399;-39
2022/04/17 10:27:46;;;;;;;3.95;3.20;;;10.20;48.90;;;;;;5039326;28;20394;-38
2022/04/17 10:30:15;;;;;;;3.97;3.10;;;10.20;50.50;;;;;;5041084;28;20098;-38
2022/04/17 10:33:02;;;;;;;4.10;2.72;;;10.10;51.70;;;;;;5038359;28;20076;-38
2022/04/17 10:35:52;;;;;;;3.63;3.33;;;10.30;49.20;;;;;;5054849;28;20383;-37
2022/04/17 10:38:31;;;;;;;3.85;3.15;;;10.50;51.40;;;;;;5042143;28;20119;-39
2022/04/17 10:41:09;;;;;;;4.05;3.50;;;10.30;51.60;;;;;;5039434;28;20025;-36
2022/04/17 10:43:55;;;;;;;3.27;2.87;;;10.20;53.80;;;;;;5039968;28;20025;-36
2022/04/17 10:46:22;;;;;;;4.88;3.53;;;10.40;51.80;;;;;;5038028;28;20576;-37
2022/04/17 10:48:58;;;;;;;3.75;3.08;;;10.60;52.30;;;;;;5038217;28;20041;-39
2022/04/17 10:51:25;;;;;;;2.80;2.55;;;10.60;51.30;;;;;;5033942;28;20494;-38
2022/04/17 10:53:57;;;;;;;4.18;3.30;;;10.50;50.20;;;;;;5038031;28;20494;-38
2022/04/17 10:56:23;;;;;;;5.57;3.10;;;10.40;48.10;;;;;;5038711;28;20026;-38
2022/04/17 10:58:57;;;;;;;5.05;3.60;;;10.50;49.70;;;;;;5040413;28;20025;-38
2022/04/17 11:01:41;;;;;;;5.80;3.10;;;10.70;52.20;;;;;;5036073;28;20045;-36
2022/04/17 11:04:19;;;;;;;5.38;3.13;;;10.50;50.20;;;;;;5038839;28;20037;-37
2022/04/17 11:06:45;;;;;;;3.72;2.92;;;10.50;55.50;;;;;;5039433;28;20052;-37
2022/04/17 11:09:23;;;;;;;3.30;3.00;;;10.70;49.50;;;;;;5041709;28;20413;-36
2022/04/17 11:11:49;;;;;;;3.55;2.80;;;10.50;52.00;;;;;;5040445;28;20039;-39
2022/04/17 11:14:22;;;;;;;5.90;2.88;;;10.50;48.30;;;;;;5040845;28;20536;-39
2022/04/17 11:17:04;;;;;;;2.95;2.75;;;10.70;47.20;;;;;;5039676;28;20094;-38
2022/04/17 11:19:31;;;;;;;3.17;2.88;;;10.70;47.00;;;;;;5038125;28;20021;-37
2022/04/17 11:22:03;;;;;;;3.37;2.73;;;10.90;50.00;;;;;;5038044;28;20036;-36
2022/04/17 11:24:54;;;;;;;3.42;3.13;;;10.90;47.30;;;;;;5039587;28;20031;-39
2022/04/17 11:27:32;;;;;;;3.72;3.25;;;10.80;46.40;;;;;;5035393;28;20048;-38
2022/04/17 11:30:02;;;;;;;3.80;2.83;;;11.00;54.70;;;;;;5040703;28;20037;-38
2022/04/17 11:32:28;;;;;;;3.67;3.05;;;10.80;53.40;;;;;;5036932;28;20102;-39
2022/04/17 11:34:56;;;;;;;3.33;2.78;;;10.50;47.20;;;;;;5040641;28;20032;-37
2022/04/17 11:37:23;;;;;;;5.03;3.08;;;10.60;51.00;;;;;;5033748;28;20025;-36
2022/04/17 11:39:50;;;;;;;5.20;3.08;;;10.90;51.10;;;;;;5036687;28;20035;-37
2022/04/17 11:42:17;;;;;;;4.93;3.25;;;11.30;49.10;;;;;;5034062;28;20060;-38
2022/04/17 11:44:52;;;;;;;3.05;2.83;;;11.40;47.00;;;;;;5035411;28;20039;-38
2022/04/17 11:47:21;;;;;;;4.07;3.00;;;11.50;51.80;;;;;;5039703;28;20050;-39
2022/04/17 11:49:48;;;;;;;4.47;2.78;;;11.70;51.10;;;;;;5033928;28;20029;-37
2022/04/17 11:52:16;;;;;;;4.32;2.65;;;11.60;48.70;;;;;;5037052;28;20108;-37
2022/04/17 11:54:43;;;;;;;3.45;2.92;;;11.50;49.10;;;;;;5034621;28;20029;-37
2022/04/17 11:57:09;;;;;;;3.28;2.90;;;11.60;52.70;;;;;;5036050;28;20033;-36
2022/04/17 11:59:57;;;;;;;3.03;2.67;;;11.60;53.90;;;;;;5038975;28;20039;-39
2022/04/17 12:02:24;;;;;;;5.00;2.95;;;11.40;49.90;;;;;;5034435;28;20037;-37
2022/04/17 12:04:56;;;;;;;3.80;3.00;;;11.40;52.70;;;;;;5037610;28;20041;-38
2022/04/17 12:07:23;;;;;;;3.45;3.15;;;11.50;49.70;;;;;;5039010;28;20470;-39
2022/04/17 12:09:50;;;;;;;3.57;2.90;;;11.70;55.10;;;;;;5037881;28;20037;-38
2022/04/17 12:12:18;;;;;;;5.60;3.38;;;11.80;53.70;;;;;;5037173;28;20029;-39
2022/04/17 12:14:52;;;;;;;4.30;2.92;;;11.60;57.10;;;;;;5035064;28;20169;-36
2022/04/17 12:17:21;;;;;;;3.28;2.92;;;11.60;48.30;;;;;;5039257;28;20033;-35
2022/04/17 12:19:50;;;;;;;3.65;2.80;;;11.60;46.90;;;;;;5036881;28;20029;-39
2022/04/17 12:22:18;;;;;;;3.40;2.78;;;11.60;51.90;;;;;;5037168;28;20160;-39
2022/04/17 12:24:46;;;;;;;4.70;2.67;;;11.50;45.50;;;;;;5040461;28;20439;-39
2022/04/17 12:27:19;;;;;;;4.03;2.97;;;11.60;50.30;;;;;;5039229;28;20056;-38
2022/04/17 12:29:49;;;;;;;4.85;3.10;;;11.60;51.50;;;;;;5043346;28;20025;-36
2022/04/17 12:32:20;;;;;;;3.80;2.90;;;12.10;50.60;;;;;;5038712;28;20041;-39
2022/04/17 12:34:56;;;;;;;4.25;3.10;;;11.90;47.60;;;;;;5037481;28;20051;-39
2022/04/17 12:37:25;;;;;;;5.30;3.30;;;11.50;49.70;;;;;;5038486;28;20051;-36
2022/04/17 12:39:51;;;;;;;3.75;3.40;;;11.60;49.70;;;;;;5038643;28;20028;-36
2022/04/17 12:42:17;;;;;;;4.72;3.45;;;11.70;53.90;;;;;;5036713;28;20044;-39
2022/04/17 12:44:44;;;;;;;2.72;2.53;;;11.70;54.30;;;;;;5035859;28;20041;-38
2022/04/17 12:47:14;;;;;;;4.68;3.15;;;11.90;47.90;;;;;;5037365;28;20028;-38
2022/04/17 12:49:41;;;;;;;9.25;3.35;;;11.70;50.00;;;;;;5038463;28;20493;-38
2022/04/17 12:52:07;;;;;;;2.97;2.67;;;11.60;48.90;;;;;;5048057;28;20107;-39
2022/04/17 12:54:35;;;;;;;3.10;2.80;;;11.60;50.40;;;;;;5042807;28;20505;-35
2022/04/17 12:57:08;;;;;;;3.20;2.90;;;11.50;51.30;;;;;;5043427;28;20048;-37
2022/04/17 12:59:49;;;;;;;4.05;2.90;;;11.50;51.80;;;;;;5043604;28;20033;-35
2022/04/17 13:02:23;;;;;;;7.88;3.53;;;11.60;47.60;;;;;;5041501;28;20044;-35
2022/04/17 13:04:53;;;;;;;2.88;2.60;;;11.50;47.80;;;;;;5041169;28;20501;-35
2022/04/17 13:07:19;;;;;;;3.45;2.55;;;11.60;51.80;;;;;;5044245;28;20075;-35
2022/04/17 13:09:53;;;;;;;3.00;2.65;;;11.80;47.20;;;;;;5042715;28;20541;-37
2022/04/17 13:12:42;;;;;;;3.33;3.03;;;11.70;45.80;;;;;;5043529;28;20029;-38
2022/04/17 13:15:08;;;;;;;2.90;2.60;;;11.80;48.40;;;;;;5042279;28;20029;-37